Time,TemperatureF,DewpointF,PressureIn,WindDirection,WindDirectionDegrees,WindSpeedMPH,WindSpeedGustMPH,Humidity,HourlyPrecipIn,Conditions,Clouds,dailyrainin,SoftwareType,DateUTC
2013-08-10 00:01:00,59.9,56.3,29.98,ENE,78,0.0,0.0,88,0.00,,,0.00,Wunderground v.1.13,2013-08-10 07:01:00,
2013-08-10 00:11:00,59.7,56.5,29.98,ENE,78,0.0,0.0,89,0.00,,,0.00,Wunderground v.1.13,2013-08-10 07:11:00,
2013-08-10 00:16:00,59.7,56.8,29.98,ENE,78,0.0,0.0,90,0.00,,,0.00,Wunderground v.1.13,2013-08-10 07:16:00,
2013-08-10 00:26:00,59.7,56.8,29.98,ENE,78,0.0,0.0,90,0.00,,,0.00,Wunderground v.1.13,2013-08-10 07:26:00,
2013-08-10 00:31:00,59.6,56.4,29.98,ENE,78,0.0,0.0,89,0.00,,,0.00,Wunderground v.1.13,2013-08-10 07:31:00,
2013-08-10 00:36:00,59.6,56.4,29.98,ENE,78,0.0,0.0,89,0.00,,,0.00,Wunderground v.1.13,2013-08-10 07:36:00,
2013-08-10 00:46:00,59.4,56.2,29.98,ENE,78,0.0,0.0,89,0.00,,,0.00,Wunderground v.1.13,2013-08-10 07:46:00,
2013-08-10 00:51:00,59.3,56.1,29.98,ENE,78,0.0,0.0,89,0.00,,,0.00,Wunderground v.1.13,2013-08-10 07:51:00,
2013-08-10 00:56:00,59.3,56.1,29.98,ENE,78,0.0,0.0,89,0.00,,,0.00,Wunderground v.1.13,2013-08-10 07:56:00,
2013-08-10 01:01:00,59.3,56.1,29.98,ENE,78,0.0,0.0,89,0.00,,,0.00,Wunderground v.1.13,2013-08-10 08:01:00,
2013-08-10 01:11:00,59.5,56.3,29.98,East,82,0.0,0.0,89,0.00,,,0.00,Wunderground v.1.13,2013-08-10 08:11:00,
2013-08-10 01:16:00,59.5,55.9,29.98,East,87,0.0,0.0,88,0.00,,,0.00,Wunderground v.1.13,2013-08-10 08:16:00,
2013-08-10 01:21:00,59.6,56.0,29.98,East,88,0.0,0.0,88,0.00,,,0.00,Wunderground v.1.13,2013-08-10 08:21:00,
2013-08-10 01:31:00,59.7,56.1,29.98,East,88,0.0,0.0,88,0.00,,,0.00,Wunderground v.1.13,2013-08-10 08:31:00,
2013-08-10 01:36:00,59.7,56.1,29.98,East,88,0.0,0.0,88,0.00,,,0.00,Wunderground v.1.13,2013-08-10 08:36:00,
2013-08-10 01:46:00,59.8,56.2,29.98,East,87,0.0,0.0,88,0.00,,,0.00,Wunderground v.1.13,2013-08-10 08:46:00,
2013-08-10 01:51:00,59.8,55.9,29.98,East,87,0.0,0.0,87,0.00,,,0.00,Wunderground v.1.13,2013-08-10 08:51:00,
2013-08-10 01:56:00,59.8,55.9,29.98,East,89,0.0,0.0,87,0.00,,,0.00,Wunderground v.1.13,2013-08-10 08:56:00,
2013-08-10 02:06:00,59.8,55.9,29.98,ESE,104,0.0,0.0,87,0.00,,,0.00,Wunderground v.1.13,2013-08-10 09:06:00,
2013-08-10 02:11:00,59.9,56.0,29.98,ESE,110,0.0,0.0,87,0.00,,,0.00,Wunderground v.1.13,2013-08-10 09:11:00,
2013-08-10 02:16:00,59.9,56.0,29.98,SE,129,0.0,0.0,87,0.00,,,0.00,Wunderground v.1.13,2013-08-10 09:16:00,
2013-08-10 02:26:00,60.0,56.4,29.98,SE,134,0.0,0.0,88,0.00,,,0.00,Wunderground v.1.13,2013-08-10 09:26:00,
2013-08-10 02:31:00,60.0,56.1,29.98,SE,135,0.0,0.0,87,0.00,,,0.00,Wunderground v.1.13,2013-08-10 09:31:00,
2013-08-10 02:41:00,60.0,56.1,29.98,SE,134,0.0,0.0,87,0.00,,,0.00,Wunderground v.1.13,2013-08-10 09:41:00,
2013-08-10 02:46:00,60.0,56.1,29.98,SE,135,0.0,0.0,87,0.00,,,0.00,Wunderground v.1.13,2013-08-10 09:46:00,
2013-08-10 02:51:00,59.9,56.0,29.98,SE,136,0.0,0.0,87,0.00,,,0.00,Wunderground v.1.13,2013-08-10 09:51:00,
2013-08-10 02:56:00,60.0,56.4,29.98,SE,136,0.0,0.0,88,0.00,,,0.00,Wunderground v.1.13,2013-08-10 09:56:00,
2013-08-10 03:01:00,60.0,56.4,29.98,SE,136,0.0,0.0,88,0.00,,,0.00,Wunderground v.1.13,2013-08-10 10:01:00,
2013-08-10 03:11:00,60.1,56.8,29.98,SE,136,0.0,0.0,89,0.00,,,0.00,Wunderground v.1.13,2013-08-10 10:11:00,
2013-08-10 03:16:00,60.1,56.8,29.98,SE,136,0.0,0.0,89,0.00,,,0.00,Wunderground v.1.13,2013-08-10 10:16:00,
2013-08-10 03:21:00,60.2,57.3,29.98,SE,136,0.0,0.0,90,0.00,,,0.00,Wunderground v.1.13,2013-08-10 10:21:00,
2013-08-10 03:31:00,60.3,57.7,29.98,SE,136,0.0,0.0,91,0.00,,,0.00,Wunderground v.1.13,2013-08-10 10:31:00,
2013-08-10 03:36:00,60.3,57.7,29.98,SE,136,0.0,0.0,91,0.00,,,0.00,Wunderground v.1.13,2013-08-10 10:36:00,
2013-08-10 03:41:00,60.2,57.6,29.98,SE,136,0.0,0.0,91,0.00,,,0.00,Wunderground v.1.13,2013-08-10 10:41:00,
2013-08-10 03:51:00,60.1,57.5,29.98,SE,136,0.0,0.0,91,0.00,,,0.00,Wunderground v.1.13,2013-08-10 10:51:00,
2013-08-10 03:56:00,60.1,57.5,29.98,SE,136,0.0,0.0,91,0.00,,,0.00,Wunderground v.1.13,2013-08-10 10:56:00,
2013-08-10 04:01:00,60.0,57.7,29.98,SE,136,0.0,0.0,92,0.00,,,0.00,Wunderground v.1.13,2013-08-10 11:01:00,
2013-08-10 04:11:00,59.9,57.6,29.98,SE,136,0.0,0.0,92,0.00,,,0.00,Wunderground v.1.13,2013-08-10 11:11:00,
2013-08-10 04:16:00,59.8,57.5,29.98,SE,136,0.0,0.0,92,0.00,,,0.00,Wunderground v.1.13,2013-08-10 11:16:00,
2013-08-10 04:21:00,59.7,57.4,29.98,SE,136,0.0,0.0,92,0.00,,,0.00,Wunderground v.1.13,2013-08-10 11:21:00,
2013-08-10 04:31:00,59.6,57.6,29.99,SE,136,0.0,0.0,93,0.00,,,0.00,Wunderground v.1.13,2013-08-10 11:31:00,
2013-08-10 04:36:00,59.6,57.3,29.99,SE,136,0.0,0.0,92,0.00,,,0.00,Wunderground v.1.13,2013-08-10 11:36:00,
2013-08-10 04:41:00,59.5,57.2,29.99,SE,136,0.0,0.0,92,0.00,,,0.00,Wunderground v.1.13,2013-08-10 11:41:00,
2013-08-10 04:46:00,59.5,57.2,29.99,SE,136,0.0,0.0,92,0.00,,,0.00,Wunderground v.1.13,2013-08-10 11:46:00,
2013-08-10 04:56:00,59.3,57.0,29.99,SE,136,0.0,0.0,92,0.00,,,0.00,Wunderground v.1.13,2013-08-10 11:56:00,
2013-08-10 05:01:00,59.2,56.9,29.99,SE,136,0.0,0.0,92,0.00,,,0.00,Wunderground v.1.13,2013-08-10 12:01:00,
2013-08-10 05:06:00,59.2,57.2,29.99,SE,136,0.0,0.0,93,0.00,,,0.00,Wunderground v.1.13,2013-08-10 12:06:00,
2013-08-10 05:11:00,59.0,57.0,30.00,SE,138,0.0,0.0,93,0.00,,,0.00,Wunderground v.1.13,2013-08-10 12:11:00,
2013-08-10 05:21:00,58.8,56.8,30.00,South,170,2.0,2.0,93,0.00,,,0.00,Wunderground v.1.13,2013-08-10 12:21:00,
2013-08-10 05:26:00,58.6,56.6,30.00,South,175,1.0,1.0,93,0.00,,,0.00,Wunderground v.1.13,2013-08-10 12:26:00,
2013-08-10 05:31:00,58.5,56.5,30.00,South,182,0.0,0.0,93,0.00,,,0.00,Wunderground v.1.13,2013-08-10 12:31:00,
2013-08-10 05:36:00,58.4,56.4,30.00,South,183,1.0,1.0,93,0.00,,,0.00,Wunderground v.1.13,2013-08-10 12:36:00,
2013-08-10 05:41:00,58.3,56.3,30.00,South,184,2.0,2.0,93,0.00,,,0.00,Wunderground v.1.13,2013-08-10 12:41:00,
2013-08-10 05:46:00,58.3,56.3,30.00,South,186,2.0,3.0,93,0.00,,,0.00,Wunderground v.1.13,2013-08-10 12:46:00,
2013-08-10 05:56:00,58.4,56.4,30.00,South,187,2.0,2.0,93,0.00,,,0.00,Wunderground v.1.13,2013-08-10 12:56:00,
2013-08-10 06:01:00,58.5,56.5,30.00,South,187,1.0,5.0,93,0.00,,,0.00,Wunderground v.1.13,2013-08-10 13:01:00,
2013-08-10 06:11:00,58.5,56.2,30.01,South,187,2.0,2.0,92,0.00,,,0.00,Wunderground v.1.13,2013-08-10 13:11:00,
2013-08-10 06:16:00,58.6,56.3,30.01,South,188,1.0,1.0,92,0.00,,,0.00,Wunderground v.1.13,2013-08-10 13:16:00,
2013-08-10 06:21:00,58.7,56.4,30.01,South,188,0.0,0.0,92,0.00,,,0.00,Wunderground v.1.13,2013-08-10 13:21:00,
2013-08-10 06:26:00,58.8,56.5,30.01,South,186,0.0,0.0,92,0.00,,,0.00,Wunderground v.1.13,2013-08-10 13:26:00,
2013-08-10 06:31:00,58.9,56.6,30.01,South,186,0.0,0.0,92,0.00,,,0.00,Wunderground v.1.13,2013-08-10 13:31:00,
2013-08-10 06:36:00,59.0,56.7,30.01,South,186,0.0,0.0,92,0.00,,,0.00,Wunderground v.1.13,2013-08-10 13:36:00,
2013-08-10 06:46:00,59.3,57.0,30.02,South,187,1.0,1.0,92,0.00,,,0.00,Wunderground v.1.13,2013-08-10 13:46:00,
2013-08-10 06:51:00,59.4,57.1,30.02,South,186,1.0,1.0,92,0.00,,,0.00,Wunderground v.1.13,2013-08-10 13:51:00,
2013-08-10 06:56:00,59.5,56.9,30.02,South,184,0.0,0.0,91,0.00,,,0.00,Wunderground v.1.13,2013-08-10 13:56:00,
2013-08-10 07:06:00,59.6,57.0,30.02,South,184,0.0,0.0,91,0.00,,,0.00,Wunderground v.1.13,2013-08-10 14:06:00,
2013-08-10 07:11:00,59.7,57.1,30.02,South,184,0.0,0.0,91,0.00,,,0.00,Wunderground v.1.13,2013-08-10 14:11:00,
2013-08-10 07:16:00,59.9,57.3,30.03,South,184,0.0,2.0,91,0.00,,,0.00,Wunderground v.1.13,2013-08-10 14:16:00,
2013-08-10 07:26:00,60.3,58.0,30.03,South,184,0.0,0.0,92,0.00,,,0.00,Wunderground v.1.13,2013-08-10 14:26:00,
2013-08-10 07:31:00,60.4,57.1,30.03,South,184,1.0,1.0,89,0.00,,,0.00,Wunderground v.1.13,2013-08-10 14:31:00,
2013-08-10 07:36:00,60.5,56.9,30.03,South,184,1.0,1.0,88,0.00,,,0.00,Wunderground v.1.13,2013-08-10 14:36:00,
2013-08-10 07:41:00,60.6,57.0,30.03,South,184,0.0,0.0,88,0.00,,,0.00,Wunderground v.1.13,2013-08-10 14:41:00,
2013-08-10 07:46:00,60.8,57.2,30.04,South,184,0.0,0.0,88,0.00,,,0.00,Wunderground v.1.13,2013-08-10 14:46:00,
2013-08-10 07:56:00,61.2,57.6,30.04,South,184,0.0,3.0,88,0.00,,,0.00,Wunderground v.1.13,2013-08-10 14:56:00,
2013-08-10 08:01:00,61.4,57.8,30.04,South,184,0.0,0.0,88,0.00,,,0.00,Wunderground v.1.13,2013-08-10 15:01:00,
2013-08-10 08:06:00,61.6,58.0,30.04,South,184,0.0,0.0,88,0.00,,,0.00,Wunderground v.1.13,2013-08-10 15:06:00,
2013-08-10 08:11:00,61.8,57.9,30.04,South,184,0.0,0.0,87,0.00,,,0.00,Wunderground v.1.13,2013-08-10 15:11:00,
2013-08-10 08:21:00,62.2,58.3,30.04,South,184,0.0,0.0,87,0.00,,,0.00,Wunderground v.1.13,2013-08-10 15:21:00,
2013-08-10 08:31:00,62.6,58.4,30.04,South,184,0.0,0.0,86,0.00,,,0.00,Wunderground v.1.13,2013-08-10 15:31:00,
2013-08-10 08:36:00,62.9,59.0,30.04,South,184,0.0,0.0,87,0.00,,,0.00,Wunderground v.1.13,2013-08-10 15:36:00,
2013-08-10 08:41:00,63.3,59.0,30.04,South,184,0.0,0.0,86,0.00,,,0.00,Wunderground v.1.13,2013-08-10 15:41:00,
2013-08-10 08:46:00,63.6,59.3,30.04,South,184,0.0,0.0,86,0.00,,,0.00,Wunderground v.1.13,2013-08-10 15:46:00,
2013-08-10 08:51:00,63.9,59.6,30.04,South,184,0.0,0.0,86,0.00,,,0.00,Wunderground v.1.13,2013-08-10 15:51:00,
2013-08-10 09:01:00,64.4,59.8,30.04,SW,225,0.0,4.0,85,0.00,,,0.00,Wunderground v.1.13,2013-08-10 16:01:00,
2013-08-10 09:06:00,64.6,59.7,30.04,WNW,298,1.0,5.0,84,0.00,,,0.00,Wunderground v.1.13,2013-08-10 16:06:00,
2013-08-10 09:11:00,64.6,59.7,30.04,NW,304,2.0,2.0,84,0.00,,,0.00,Wunderground v.1.13,2013-08-10 16:11:00,
2013-08-10 09:16:00,64.7,59.4,30.04,NW,304,1.0,1.0,83,0.00,,,0.00,Wunderground v.1.13,2013-08-10 16:16:00,
2013-08-10 09:21:00,64.9,59.6,30.05,NW,307,0.0,4.0,83,0.00,,,0.00,Wunderground v.1.13,2013-08-10 16:21:00,
2013-08-10 09:31:00,65.3,59.7,30.05,NW,308,1.0,1.0,82,0.00,,,0.00,Wunderground v.1.13,2013-08-10 16:31:00,
2013-08-10 09:36:00,65.5,59.9,30.05,NW,309,1.0,1.0,82,0.00,,,0.00,Wunderground v.1.13,2013-08-10 16:36:00,
2013-08-10 09:41:00,65.9,60.2,30.04,NW,309,1.0,1.0,82,0.00,,,0.00,Wunderground v.1.13,2013-08-10 16:41:00,
2013-08-10 09:51:00,66.5,60.5,30.05,NW,310,0.0,0.0,81,0.00,,,0.00,Wunderground v.1.13,2013-08-10 16:51:00,
2013-08-10 09:56:00,66.7,60.3,30.05,NW,315,1.0,2.0,80,0.00,,,0.00,Wunderground v.1.13,2013-08-10 16:56:00,
2013-08-10 10:01:00,66.8,60.4,30.05,NW,319,1.0,1.0,80,0.00,,,0.00,Wunderground v.1.13,2013-08-10 17:01:00,
2013-08-10 10:11:00,67.4,60.3,30.05,NNW,328,1.0,4.0,78,0.00,,,0.00,Wunderground v.1.13,2013-08-10 17:11:00,
2013-08-10 10:16:00,67.4,60.3,30.05,NNW,329,3.0,3.0,78,0.00,,,0.00,Wunderground v.1.13,2013-08-10 17:16:00,
2013-08-10 10:21:00,67.7,60.6,30.05,North,360,3.0,4.0,78,0.00,,,0.00,Wunderground v.1.13,2013-08-10 17:21:00,
2013-08-10 10:26:00,67.9,60.4,30.05,NNW,329,3.0,3.0,77,0.00,,,0.00,Wunderground v.1.13,2013-08-10 17:26:00,
2013-08-10 10:36:00,68.3,60.4,30.05,NW,323,4.0,9.0,76,0.00,,,0.00,Wunderground v.1.13,2013-08-10 17:36:00,
2013-08-10 10:41:00,68.4,60.9,30.05,NW,321,5.0,10.0,77,0.00,,,0.00,Wunderground v.1.13,2013-08-10 17:41:00,
2013-08-10 10:51:00,69.0,60.7,30.05,NW,326,4.0,10.0,75,0.00,,,0.00,Wunderground v.1.13,2013-08-10 17:51:00,
2013-08-10 11:01:00,68.9,59.9,30.05,NW,324,5.0,5.0,73,0.00,,,0.00,Wunderground v.1.13,2013-08-10 18:01:00,
2013-08-10 11:06:00,69.3,60.3,30.05,North,355,4.0,4.0,73,0.00,,,0.00,Wunderground v.1.13,2013-08-10 18:06:00,
2013-08-10 11:11:00,69.6,60.2,30.06,NW,323,4.0,4.0,72,0.00,,,0.00,Wunderground v.1.13,2013-08-10 18:11:00,
2013-08-10 11:16:00,69.9,60.8,30.06,NW,323,4.0,9.0,73,0.00,,,0.00,Wunderground v.1.13,2013-08-10 18:16:00,
2013-08-10 11:21:00,70.2,60.4,30.05,NNW,344,3.0,4.0,71,0.00,,,0.00,Wunderground v.1.13,2013-08-10 18:21:00,
2013-08-10 11:31:00,70.5,60.6,30.06,North,355,3.0,4.0,71,0.00,,,0.00,Wunderground v.1.13,2013-08-10 18:31:00,
2013-08-10 11:36:00,70.8,60.9,30.06,NNW,348,3.0,8.0,71,0.00,,,0.00,Wunderground v.1.13,2013-08-10 18:36:00,
2013-08-10 11:41:00,70.7,61.2,30.06,North,360,4.0,4.0,72,0.00,,,0.00,Wunderground v.1.13,2013-08-10 18:41:00,
2013-08-10 11:46:00,70.9,61.0,30.06,NNW,330,4.0,5.0,71,0.00,,,0.00,Wunderground v.1.13,2013-08-10 18:46:00,
2013-08-10 11:51:00,70.7,61.2,30.06,North,5,3.0,3.0,72,0.00,,,0.00,Wunderground v.1.13,2013-08-10 18:51:00,
2013-08-10 11:56:00,70.6,60.7,30.06,North,360,3.0,5.0,71,0.00,,,0.00,Wunderground v.1.13,2013-08-10 18:56:00,
2013-08-10 12:06:00,71.0,60.7,30.06,NW,318,4.0,4.0,70,0.00,,,0.00,Wunderground v.1.13,2013-08-10 19:06:00,
2013-08-10 12:11:00,71.2,60.9,30.06,NNW,344,3.0,3.0,70,0.00,,,0.00,Wunderground v.1.13,2013-08-10 19:11:00,
2013-08-10 12:16:00,71.1,60.4,30.06,NW,320,3.0,3.0,69,0.00,,,0.00,Wunderground v.1.13,2013-08-10 19:16:00,
2013-08-10 12:26:00,71.4,60.7,30.06,NE,36,3.0,6.0,69,0.00,,,0.00,Wunderground v.1.13,2013-08-10 19:26:00,
2013-08-10 12:31:00,70.9,61.0,30.05,North,355,4.0,5.0,71,0.00,,,0.00,Wunderground v.1.13,2013-08-10 19:31:00,
2013-08-10 12:36:00,70.6,61.1,30.05,NNE,25,3.0,3.0,72,0.00,,,0.00,Wunderground v.1.13,2013-08-10 19:36:00,
2013-08-10 12:46:00,71.2,61.7,30.05,NE,39,3.0,7.0,72,0.00,,,0.00,Wunderground v.1.13,2013-08-10 19:46:00,
2013-08-10 12:51:00,71.3,61.4,30.05,NNE,28,4.0,4.0,71,0.00,,,0.00,Wunderground v.1.13,2013-08-10 19:51:00,
2013-08-10 12:56:00,71.1,60.8,30.05,NE,41,4.0,4.0,70,0.00,,,0.00,Wunderground v.1.13,2013-08-10 19:56:00,
2013-08-10 13:06:00,70.4,60.5,30.05,NNW,333,4.0,4.0,71,0.00,,,0.00,Wunderground v.1.13,2013-08-10 20:06:00,
2013-08-10 13:11:00,70.8,60.9,30.05,ENE,64,4.0,5.0,71,0.00,,,0.00,Wunderground v.1.13,2013-08-10 20:11:00,
2013-08-10 13:16:00,70.5,60.6,30.05,NNE,22,4.0,4.0,71,0.00,,,0.00,Wunderground v.1.13,2013-08-10 20:16:00,
2013-08-10 13:21:00,70.1,60.3,30.05,NE,34,4.0,6.0,71,0.00,,,0.00,Wunderground v.1.13,2013-08-10 20:21:00,
2013-08-10 13:31:00,71.0,61.1,30.04,NE,36,3.0,3.0,71,0.00,,,0.00,Wunderground v.1.13,2013-08-10 20:31:00,
2013-08-10 13:36:00,71.3,60.6,30.04,NNE,29,3.0,4.0,69,0.00,,,0.00,Wunderground v.1.13,2013-08-10 20:36:00,
2013-08-10 13:41:00,71.1,60.8,30.04,NNE,15,4.0,4.0,70,0.00,,,0.00,Wunderground v.1.13,2013-08-10 20:41:00,
2013-08-10 13:51:00,71.3,61.0,30.04,NNE,29,4.0,5.0,70,0.00,,,0.00,Wunderground v.1.13,2013-08-10 20:51:00,
2013-08-10 13:56:00,70.9,61.4,30.04,ENE,65,5.0,5.0,72,0.00,,,0.00,Wunderground v.1.13,2013-08-10 20:56:00,
2013-08-10 14:06:00,71.2,60.9,30.04,NNE,17,3.0,3.0,70,0.00,,,0.00,Wunderground v.1.13,2013-08-10 21:06:00,
2013-08-10 14:16:00,71.4,60.3,30.04,NE,46,3.0,3.0,68,0.00,,,0.00,Wunderground v.1.13,2013-08-10 21:16:00,
2013-08-10 14:21:00,70.8,60.5,30.04,ENE,65,4.0,6.0,70,0.00,,,0.00,Wunderground v.1.13,2013-08-10 21:21:00,
2013-08-10 14:31:00,70.5,60.2,30.04,NE,51,4.0,4.0,70,0.00,,,0.00,Wunderground v.1.13,2013-08-10 21:31:00,
2013-08-10 14:36:00,70.3,60.1,30.04,ENE,57,4.0,4.0,70,0.00,,,0.00,Wunderground v.1.13,2013-08-10 21:36:00,
2013-08-10 14:41:00,70.1,59.9,30.04,NNE,30,4.0,4.0,70,0.00,,,0.00,Wunderground v.1.13,2013-08-10 21:41:00,
2013-08-10 14:46:00,70.5,60.2,30.03,ENE,59,3.0,4.0,70,0.00,,,0.00,Wunderground v.1.13,2013-08-10 21:46:00,
2013-08-10 14:56:00,70.9,60.6,30.03,East,94,3.0,8.0,70,0.00,,,0.00,Wunderground v.1.13,2013-08-10 21:56:00,
2013-08-10 15:01:00,70.3,60.1,30.03,ENE,77,5.0,5.0,70,0.00,,,0.00,Wunderground v.1.13,2013-08-10 22:01:00,
2013-08-10 15:11:00,69.4,60.4,30.03,East,88,5.0,5.0,73,0.00,,,0.00,Wunderground v.1.13,2013-08-10 22:11:00,
2013-08-10 15:16:00,69.9,60.5,30.02,East,80,4.0,4.0,72,0.00,,,0.00,Wunderground v.1.13,2013-08-10 22:16:00,
2013-08-10 15:21:00,70.4,60.5,30.02,NE,46,2.0,3.0,71,0.00,,,0.00,Wunderground v.1.13,2013-08-10 22:21:00,
2013-08-10 15:26:00,70.4,60.9,30.02,NE,37,2.0,11.0,72,0.00,,,0.00,Wunderground v.1.13,2013-08-10 22:26:00,
2013-08-10 15:36:00,70.0,60.6,30.02,ENE,63,5.0,9.0,72,0.00,,,0.00,Wunderground v.1.13,2013-08-10 22:36:00,
2013-08-10 15:41:00,69.3,60.3,30.02,NNE,26,6.0,11.0,73,0.00,,,0.00,Wunderground v.1.13,2013-08-10 22:41:00,
2013-08-10 15:46:00,68.8,60.6,30.01,NE,42,6.0,6.0,75,0.00,,,0.00,Wunderground v.1.13,2013-08-10 22:46:00,
2013-08-10 15:56:00,69.3,61.0,30.01,East,87,4.0,5.0,75,0.00,,,0.00,Wunderground v.1.13,2013-08-10 22:56:00,
2013-08-10 16:06:00,68.5,61.0,30.01,East,89,7.0,9.0,77,0.00,,,0.00,Wunderground v.1.13,2013-08-10 23:06:00,
2013-08-10 16:11:00,68.2,61.1,30.01,East,86,7.0,7.0,78,0.00,,,0.00,Wunderground v.1.13,2013-08-10 23:11:00,
2013-08-10 16:16:00,68.1,61.0,30.01,ESE,105,7.0,9.0,78,0.00,,,0.00,Wunderground v.1.13,2013-08-10 23:16:00,
2013-08-10 16:21:00,68.0,60.9,30.01,East,92,6.0,9.0,78,0.00,,,0.00,Wunderground v.1.13,2013-08-10 23:21:00,
2013-08-10 16:26:00,67.7,61.0,30.00,East,90,6.0,6.0,79,0.00,,,0.00,Wunderground v.1.13,2013-08-10 23:26:00,
2013-08-10 16:31:00,67.5,60.8,30.00,ENE,69,6.0,10.0,79,0.00,,,0.00,Wunderground v.1.13,2013-08-10 23:31:00,
2013-08-10 16:36:00,67.1,60.7,30.00,ENE,74,6.0,6.0,80,0.00,,,0.00,Wunderground v.1.13,2013-08-10 23:36:00,
2013-08-10 16:46:00,67.1,61.1,30.00,ENE,71,5.0,5.0,81,0.00,,,0.00,Wunderground v.1.13,2013-08-10 23:46:00,
2013-08-10 16:51:00,67.0,61.0,30.00,East,93,3.0,3.0,81,0.00,,,0.00,Wunderground v.1.13,2013-08-10 23:51:00,
2013-08-10 17:01:00,66.5,60.5,30.00,ENE,61,5.0,11.0,81,0.00,,,0.00,Wunderground v.1.13,2013-08-11 00:01:00,
2013-08-10 17:06:00,66.1,60.8,30.00,ENE,57,6.0,6.0,83,0.00,,,0.00,Wunderground v.1.13,2013-08-11 00:06:00,
2013-08-10 17:11:00,66.1,60.4,30.00,East,85,6.0,7.0,82,0.00,,,0.00,Wunderground v.1.13,2013-08-11 00:11:00,
2013-08-10 17:21:00,65.5,60.5,30.00,ENE,69,6.0,6.0,84,0.00,,,0.00,Wunderground v.1.13,2013-08-11 00:21:00,
2013-08-10 17:26:00,65.2,60.2,30.00,ENE,67,6.0,7.0,84,0.00,,,0.00,Wunderground v.1.13,2013-08-11 00:26:00,
2013-08-10 17:36:00,64.8,60.2,29.99,ESE,105,6.0,6.0,85,0.00,,,0.00,Wunderground v.1.13,2013-08-11 00:36:00,
2013-08-10 17:41:00,64.7,60.1,29.99,East,80,6.0,6.0,85,0.00,,,0.00,Wunderground v.1.13,2013-08-11 00:41:00,
2013-08-10 17:46:00,64.6,60.0,29.99,East,86,6.0,6.0,85,0.00,,,0.00,Wunderground v.1.13,2013-08-11 00:46:00,
2013-08-10 17:56:00,64.9,60.3,29.99,East,88,6.0,6.0,85,0.00,,,0.00,Wunderground v.1.13,2013-08-11 00:56:00,
2013-08-10 18:06:00,64.3,60.0,29.98,NE,51,7.0,7.0,86,0.00,,,0.00,Wunderground v.1.13,2013-08-11 01:06:00,
2013-08-10 18:11:00,64.2,59.9,29.98,East,84,6.0,6.0,86,0.00,,,0.00,Wunderground v.1.13,2013-08-11 01:11:00,
2013-08-10 18:16:00,63.9,59.6,29.98,ENE,66,6.0,6.0,86,0.00,,,0.00,Wunderground v.1.13,2013-08-11 01:16:00,
2013-08-10 18:26:00,63.4,59.5,29.98,NE,46,6.0,14.0,87,0.00,,,0.00,Wunderground v.1.13,2013-08-11 01:26:00,
2013-08-10 18:31:00,63.1,59.5,29.98,ENE,66,7.0,7.0,88,0.00,,,0.00,Wunderground v.1.13,2013-08-11 01:31:00,
2013-08-10 18:36:00,62.9,59.3,29.98,East,81,7.0,7.0,88,0.00,,,0.00,Wunderground v.1.13,2013-08-11 01:36:00,
2013-08-10 18:41:00,62.7,59.4,29.97,East,86,6.0,6.0,89,0.00,,,0.00,Wunderground v.1.13,2013-08-11 01:41:00,
2013-08-10 18:51:00,62.5,59.2,29.98,NE,44,5.0,5.0,89,0.00,,,0.00,Wunderground v.1.13,2013-08-11 01:51:00,
2013-08-10 18:56:00,62.5,59.5,29.98,ESE,113,4.0,4.0,90,0.00,,,0.00,Wunderground v.1.13,2013-08-11 01:56:00,
2013-08-10 19:06:00,62.5,59.5,29.98,ENE,65,3.0,3.0,90,0.00,,,0.00,Wunderground v.1.13,2013-08-11 02:06:00,
2013-08-10 19:11:00,62.5,59.5,29.98,East,81,4.0,4.0,90,0.00,,,0.00,Wunderground v.1.13,2013-08-11 02:11:00,
2013-08-10 19:21:00,62.3,59.3,29.98,East,80,3.0,4.0,90,0.00,,,0.00,Wunderground v.1.13,2013-08-11 02:21:00,
2013-08-10 19:26:00,62.3,59.3,29.98,ENE,61,3.0,3.0,90,0.00,,,0.00,Wunderground v.1.13,2013-08-11 02:26:00,
2013-08-10 19:31:00,62.3,59.3,29.98,ESE,118,3.0,3.0,90,0.00,,,0.00,Wunderground v.1.13,2013-08-11 02:31:00,
2013-08-10 19:41:00,62.3,59.3,29.98,ENE,66,1.0,2.0,90,0.00,,,0.00,Wunderground v.1.13,2013-08-11 02:41:00,
2013-08-10 19:46:00,62.1,59.1,29.98,ENE,69,2.0,3.0,90,0.00,,,0.00,Wunderground v.1.13,2013-08-11 02:46:00,
2013-08-10 19:51:00,62.1,59.1,29.98,East,86,2.0,2.0,90,0.00,,,0.00,Wunderground v.1.13,2013-08-11 02:51:00,
2013-08-10 20:01:00,62.0,59.0,29.98,ENE,71,1.0,1.0,90,0.00,,,0.00,Wunderground v.1.13,2013-08-11 03:01:00,
2013-08-10 20:11:00,62.0,59.0,29.98,ENE,69,1.0,1.0,90,0.00,,,0.00,Wunderground v.1.13,2013-08-11 03:11:00,
2013-08-10 20:16:00,61.9,58.9,29.98,ENE,61,1.0,1.0,90,0.00,,,0.00,Wunderground v.1.13,2013-08-11 03:16:00,
2013-08-10 20:21:00,61.9,58.9,29.98,ENE,61,1.0,1.0,90,0.00,,,0.00,Wunderground v.1.13,2013-08-11 03:21:00,
2013-08-10 20:26:00,61.8,58.8,29.98,ENE,61,0.0,0.0,90,0.00,,,0.00,Wunderground v.1.13,2013-08-11 03:26:00,
2013-08-10 20:31:00,61.8,58.8,29.98,ENE,61,0.0,0.0,90,0.00,,,0.00,Wunderground v.1.13,2013-08-11 03:31:00,
2013-08-10 20:41:00,61.9,58.9,29.99,ENE,61,0.0,0.0,90,0.00,,,0.00,Wunderground v.1.13,2013-08-11 03:41:00,
2013-08-10 20:56:00,61.9,59.2,29.99,ENE,61,0.0,0.0,91,0.00,,,0.00,Wunderground v.1.13,2013-08-11 03:56:00,
2013-08-10 21:01:00,62.0,59.3,29.99,ENE,61,0.0,0.0,91,0.00,,,0.00,Wunderground v.1.13,2013-08-11 04:01:00,
2013-08-10 21:06:00,62.0,59.3,29.99,ENE,61,0.0,0.0,91,0.00,,,0.00,Wunderground v.1.13,2013-08-11 04:06:00,
2013-08-10 21:11:00,62.0,59.3,29.99,ENE,61,0.0,0.0,91,0.00,,,0.00,Wunderground v.1.13,2013-08-11 04:11:00,
2013-08-10 21:16:00,62.0,59.3,29.99,ENE,61,0.0,0.0,91,0.00,,,0.00,Wunderground v.1.13,2013-08-11 04:16:00,
2013-08-10 22:16:00,61.9,59.2,29.99,ENE,61,0.0,0.0,91,0.00,,,0.00,Wunderground v.1.13,2013-08-11 05:16:00,
2013-08-10 22:21:00,61.9,59.2,29.99,ENE,61,0.0,0.0,91,0.00,,,0.00,Wunderground v.1.13,2013-08-11 05:21:00,
2013-08-10 22:26:00,61.9,59.2,29.99,ENE,61,0.0,0.0,91,0.00,,,0.00,Wunderground v.1.13,2013-08-11 05:26:00,
2013-08-10 22:36:00,61.8,59.1,29.99,ENE,61,0.0,0.0,91,0.00,,,0.00,Wunderground v.1.13,2013-08-11 05:36:00,
2013-08-10 22:41:00,61.9,59.2,29.99,ENE,61,0.0,0.0,91,0.00,,,0.00,Wunderground v.1.13,2013-08-11 05:41:00,
2013-08-10 22:51:00,61.9,59.2,29.99,ENE,61,0.0,0.0,91,0.00,,,0.00,Wunderground v.1.13,2013-08-11 05:51:00,
2013-08-10 22:56:00,61.9,59.2,29.99,ENE,61,0.0,0.0,91,0.00,,,0.00,Wunderground v.1.13,2013-08-11 05:56:00,
2013-08-10 23:01:00,61.8,59.1,29.99,ENE,61,0.0,0.0,91,0.00,,,0.00,Wunderground v.1.13,2013-08-11 06:01:00,
2013-08-10 23:11:00,61.8,59.1,29.99,ENE,61,0.0,0.0,91,0.00,,,0.00,Wunderground v.1.13,2013-08-11 06:11:00,
2013-08-10 23:26:00,61.7,59.0,29.99,ENE,61,0.0,0.0,91,0.00,,,0.00,Wunderground v.1.13,2013-08-11 06:26:00,
2013-08-10 23:31:00,61.7,59.0,29.99,ENE,61,0.0,0.0,91,0.00,,,0.00,Wunderground v.1.13,2013-08-11 06:31:00,
2013-08-10 23:36:00,61.7,59.4,29.99,ENE,61,0.0,0.0,92,0.00,,,0.00,Wunderground v.1.13,2013-08-11 06:36:00,
2013-08-10 23:51:00,61.6,59.3,29.99,ENE,61,0.0,0.0,92,0.00,,,0.00,Wunderground v.1.13,2013-08-11 06:51:00,